createdAt,value
2023-05-03T00:00:27.725Z,5.20
2023-05-03T00:02:54.775Z,5.60
2023-05-03T00:05:21.541Z,5.10
2023-05-03T00:07:48.201Z,5.50
2023-05-03T00:10:17.657Z,5.60
2023-05-03T00:12:44.483Z,5.60
2023-05-03T00:15:11.679Z,5.90
2023-05-03T00:17:38.786Z,6.80
2023-05-03T00:20:06.493Z,6.50
2023-05-03T00:22:33.225Z,5.80
2023-05-03T00:25:00.663Z,5.70
2023-05-03T00:27:28.825Z,5.20
2023-05-03T00:29:55.511Z,5.10
2023-05-03T00:32:22.923Z,4.90
2023-05-03T00:34:55.032Z,5.10
2023-05-03T00:37:22.817Z,5.10
2023-05-03T00:39:49.693Z,5.60
2023-05-03T00:42:16.899Z,5.50
2023-05-03T00:44:43.623Z,5.30
2023-05-03T00:47:10.990Z,5.90
2023-05-03T00:49:38.703Z,6.20
2023-05-03T00:52:06.725Z,4.80
2023-05-03T00:54:35.228Z,4.10
2023-05-03T00:57:04.468Z,4.90
2023-05-03T00:59:32.634Z,4.50
2023-05-03T01:01:59.293Z,4.30
2023-05-03T01:04:26.854Z,4.40
2023-05-03T01:06:59.490Z,4.60
2023-05-03T01:09:34.565Z,4.40
2023-05-03T01:12:19.519Z,4.60
2023-05-03T01:15:08.697Z,5.00
2023-05-03T01:17:57.927Z,4.90
2023-05-03T01:20:28.378Z,3.90
2023-05-03T01:22:58.346Z,3.90
2023-05-03T01:25:26.950Z,4.50
2023-05-03T01:27:53.497Z,4.90
2023-05-03T01:30:23.544Z,3.90
2023-05-03T01:33:16.945Z,4.30
2023-05-03T01:35:52.671Z,5.40
2023-05-03T01:38:21.425Z,4.90
2023-05-03T01:40:57.697Z,5.10
2023-05-03T01:43:26.285Z,4.80
2023-05-03T01:45:52.912Z,4.50
2023-05-03T01:48:19.880Z,4.60
2023-05-03T01:50:46.909Z,5.30
2023-05-03T01:53:13.665Z,4.60
2023-05-03T01:55:41.457Z,4.80
2023-05-03T01:58:08.019Z,4.80
2023-05-03T02:00:34.616Z,5.40
2023-05-03T02:03:01.222Z,4.90
2023-05-03T02:05:27.894Z,5.40
2023-05-03T02:07:54.571Z,4.80
2023-05-03T02:10:21.308Z,4.50
2023-05-03T02:12:48.203Z,4.30
2023-05-03T02:15:15.085Z,4.60
2023-05-03T02:17:43.845Z,3.80
2023-05-03T02:20:10.945Z,4.60
2023-05-03T02:22:37.541Z,4.10
2023-05-03T02:25:05.030Z,3.70
2023-05-03T02:27:31.682Z,3.50
2023-05-03T02:29:58.223Z,4.10
2023-05-03T02:32:25.993Z,3.60
2023-05-03T02:34:52.751Z,3.70
2023-05-03T02:37:19.676Z,3.60
2023-05-03T02:39:46.678Z,3.40
2023-05-03T02:42:13.472Z,3.20
2023-05-03T02:44:40.281Z,3.70
2023-05-03T02:47:08.396Z,3.70
2023-05-03T02:49:35.919Z,3.40
2023-05-03T02:52:02.503Z,4.30
2023-05-03T02:54:29.085Z,4.20
2023-05-03T02:56:56.698Z,4.10
2023-05-03T02:59:23.376Z,3.80
2023-05-03T03:01:50.865Z,4.00
2023-05-03T03:04:17.565Z,3.50
2023-05-03T03:06:44.161Z,3.80
2023-05-03T03:09:12.530Z,4.00
2023-05-03T03:11:39.769Z,3.60
2023-05-03T03:14:07.923Z,3.10
2023-05-03T03:16:35.349Z,3.60
2023-05-03T03:19:01.922Z,3.40
2023-05-03T03:21:29.819Z,3.60
2023-05-03T03:23:56.831Z,3.60
2023-05-03T03:26:23.551Z,3.80
2023-05-03T03:28:51.915Z,3.30
2023-05-03T03:31:18.564Z,3.70
2023-05-03T03:33:46.296Z,3.40
2023-05-03T03:36:14.555Z,3.30
2023-05-03T03:38:41.423Z,3.30
2023-05-03T03:41:08.615Z,3.20
2023-05-03T03:43:35.919Z,3.50
2023-05-03T03:46:03.471Z,3.30
2023-05-03T03:48:30.256Z,3.60
2023-05-03T03:50:56.930Z,3.50
2023-05-03T03:53:25.186Z,3.90
2023-05-03T03:55:51.733Z,4.30
2023-05-03T04:00:25.284Z,4.20
2023-05-03T04:02:56.247Z,3.90
2023-05-03T04:05:23.008Z,4.90
2023-05-03T04:07:49.965Z,4.10
2023-05-03T04:10:17.170Z,4.00
2023-05-03T04:12:43.995Z,4.30
2023-05-03T04:15:11.817Z,4.00
2023-05-03T04:17:39.546Z,3.90
2023-05-03T04:20:11.142Z,3.60
2023-05-03T04:22:40.252Z,3.60
2023-05-03T04:25:11.007Z,3.30
2023-05-03T04:27:38.259Z,3.70
2023-05-03T04:30:06.552Z,4.00
2023-05-03T04:32:37.774Z,4.50
2023-05-03T04:35:12.560Z,4.10
2023-05-03T04:37:42.763Z,3.80
2023-05-03T04:40:12.107Z,3.90
2023-05-03T04:42:42.496Z,3.90
2023-05-03T04:45:10.887Z,3.70
2023-05-03T04:47:37.663Z,3.90
2023-05-03T04:50:04.725Z,4.00
2023-05-03T04:52:31.873Z,4.30
2023-05-03T04:54:58.441Z,3.80
2023-05-03T04:57:26.058Z,4.00
2023-05-03T04:59:54.135Z,3.90
2023-05-03T05:02:21.569Z,3.90
2023-05-03T05:04:48.782Z,3.70
2023-05-03T05:07:15.586Z,3.60
2023-05-03T05:09:43.526Z,3.20
2023-05-03T05:12:11.501Z,3.70
2023-05-03T05:14:39.918Z,3.90
2023-05-03T05:17:07.951Z,4.00
2023-05-03T05:19:35.883Z,3.50
2023-05-03T05:22:02.670Z,3.40
2023-05-03T05:24:37.973Z,3.50
2023-05-03T05:27:05.096Z,3.00
2023-05-03T05:29:31.700Z,5.40
2023-05-03T05:31:59.775Z,3.50
2023-05-03T05:34:26.706Z,4.20
2023-05-03T05:36:54.640Z,3.10
2023-05-03T05:39:23.429Z,2.90
2023-05-03T05:41:50.601Z,2.50
2023-05-03T05:44:17.180Z,3.00
2023-05-03T05:46:44.891Z,2.70
2023-05-03T05:49:11.546Z,17.10
2023-05-03T05:51:39.448Z,4.30
2023-05-03T05:54:07.816Z,2.90
2023-05-03T05:56:34.726Z,3.00
2023-05-03T05:59:01.414Z,2.90
2023-05-03T06:01:28.583Z,2.90
2023-05-03T06:03:56.419Z,2.30
2023-05-03T06:06:23.228Z,2.70
2023-05-03T06:08:51.492Z,2.80
2023-05-03T06:11:18.235Z,2.50
2023-05-03T06:13:45.135Z,1.80
2023-05-03T06:16:14.044Z,2.40
2023-05-03T06:18:40.690Z,2.10
2023-05-03T06:21:07.671Z,2.00
2023-05-03T06:23:35.350Z,2.10
2023-05-03T06:26:02.773Z,2.40
2023-05-03T06:28:29.708Z,2.40
2023-05-03T06:30:56.380Z,2.10
2023-05-03T06:33:23.395Z,2.00
2023-05-03T06:35:51.687Z,1.50
2023-05-03T06:38:19.051Z,1.70
2023-05-03T06:40:46.531Z,1.80
2023-05-03T06:43:14.233Z,1.40
2023-05-03T06:45:53.465Z,1.50
2023-05-03T06:48:21.313Z,1.40
2023-05-03T06:50:48.369Z,1.30
2023-05-03T06:53:15.150Z,1.20
2023-05-03T06:55:45.504Z,1.20
2023-05-03T06:58:12.172Z,1.00
2023-05-03T07:00:41.716Z,1.00
2023-05-03T07:03:08.470Z,1.60
2023-05-03T07:05:35.193Z,0.70
2023-05-03T07:08:01.799Z,1.00
2023-05-03T07:10:31.274Z,1.10
2023-05-03T07:12:58.421Z,1.20
2023-05-03T07:15:25.028Z,1.10
2023-05-03T07:17:51.664Z,1.70
2023-05-03T07:20:18.432Z,1.20
2023-05-03T07:22:45.157Z,1.30
2023-05-03T07:25:14.243Z,1.40
2023-05-03T07:27:41.011Z,1.10
2023-05-03T07:30:08.209Z,1.30
2023-05-03T07:32:34.914Z,1.10
2023-05-03T07:35:01.575Z,1.40
2023-05-03T07:37:28.174Z,1.30
2023-05-03T07:39:54.780Z,1.20
2023-05-03T07:42:21.308Z,1.00
2023-05-03T07:44:47.940Z,1.50
2023-05-03T07:47:14.479Z,1.10
2023-05-03T07:49:41.190Z,1.40
2023-05-03T07:52:07.836Z,0.90
2023-05-03T07:54:34.472Z,1.10
2023-05-03T07:57:01.358Z,1.20
2023-05-03T07:59:27.942Z,0.90
2023-05-03T08:01:54.559Z,1.00
2023-05-03T08:04:21.838Z,1.10
2023-05-03T08:06:49.163Z,1.10
2023-05-03T08:09:15.802Z,1.40
2023-05-03T08:11:44.098Z,1.00
2023-05-03T08:14:11.395Z,1.50
2023-05-03T08:16:38.789Z,1.10
2023-05-03T08:19:05.395Z,1.30
2023-05-03T08:21:33.532Z,0.90
2023-05-03T08:24:00.893Z,0.90
2023-05-03T08:26:29.807Z,1.50
2023-05-03T08:28:56.613Z,1.80
2023-05-03T08:31:23.373Z,1.60
2023-05-03T08:33:50.053Z,1.30
2023-05-03T08:36:16.830Z,1.60
2023-05-03T08:38:43.466Z,1.60
2023-05-03T08:41:26.142Z,1.00
2023-05-03T08:43:54.510Z,0.90
2023-05-03T08:46:21.590Z,3.90
2023-05-03T08:48:49.750Z,2.20
2023-05-03T08:51:18.129Z,1.70
2023-05-03T08:53:48.529Z,1.80
2023-05-03T08:56:34.751Z,1.40
2023-05-03T08:59:07.506Z,1.30
2023-05-03T09:01:37.262Z,1.60
2023-05-03T09:04:04.555Z,1.90
2023-05-03T09:06:33.305Z,1.30
2023-05-03T09:09:01.756Z,1.50
2023-05-03T09:11:30.962Z,1.10
2023-05-03T09:14:18.249Z,1.10
2023-05-03T09:16:47.285Z,1.20
2023-05-03T09:21:44.095Z,1.40
2023-05-03T09:24:15.961Z,1.10
2023-05-03T09:26:43.614Z,1.20
2023-05-03T09:29:10.273Z,1.10
2023-05-03T09:31:37.930Z,1.00
2023-05-03T09:34:22.961Z,0.90
2023-05-03T09:36:49.619Z,1.30
2023-05-03T09:39:19.848Z,0.90
2023-05-03T09:41:47.100Z,1.00
2023-05-03T09:44:13.856Z,0.80
2023-05-03T09:47:00.582Z,1.00
2023-05-03T09:49:27.504Z,1.00
2023-05-03T09:51:55.100Z,1.30
2023-05-03T09:54:25.682Z,1.00
2023-05-03T09:56:55.419Z,1.00
2023-05-03T09:59:22.007Z,1.20
2023-05-03T10:01:49.054Z,0.90
2023-05-03T10:04:19.812Z,0.90
2023-05-03T10:06:49.352Z,0.80
2023-05-03T10:11:53.266Z,0.90
2023-05-03T10:14:22.981Z,0.90
2023-05-03T10:16:53.305Z,1.00
2023-05-03T10:19:27.495Z,1.00
2023-05-03T10:22:07.738Z,0.70
2023-05-03T10:24:36.183Z,1.10
2023-05-03T10:27:07.136Z,0.80
2023-05-03T10:29:34.493Z,0.90
2023-05-03T10:32:02.331Z,1.00
2023-05-03T10:34:33.965Z,1.00
2023-05-03T10:37:09.693Z,0.90
2023-05-03T10:39:37.229Z,1.00
2023-05-03T10:42:08.739Z,0.70
2023-05-03T10:44:51.282Z,0.90
2023-05-03T10:47:23.634Z,0.80
2023-05-03T10:50:16.232Z,0.90
2023-05-03T10:52:42.976Z,0.90
2023-05-03T10:55:10.740Z,1.10
2023-05-03T10:57:40.327Z,1.00
2023-05-03T11:00:36.990Z,1.10
2023-05-03T11:03:31.449Z,0.90
2023-05-03T11:05:58.274Z,0.70
2023-05-03T11:08:25.994Z,1.10
2023-05-03T11:11:00.893Z,0.90
2023-05-03T11:13:28.055Z,0.90
2023-05-03T11:15:56.367Z,4.20
2023-05-03T11:18:27.586Z,1.00
2023-05-03T11:20:54.439Z,1.30
2023-05-03T11:23:25.513Z,0.80
2023-05-03T11:25:52.536Z,0.90
2023-05-03T11:28:19.157Z,0.70
2023-05-03T11:30:46.964Z,0.80
2023-05-03T11:33:13.659Z,0.80
2023-05-03T11:35:40.592Z,1.10
2023-05-03T11:38:07.210Z,0.80
2023-05-03T11:40:33.833Z,1.30
2023-05-03T11:43:01.023Z,1.20
2023-05-03T11:45:45.994Z,1.00
2023-05-03T11:48:14.099Z,1.40
2023-05-03T11:50:47.071Z,1.10
2023-05-03T11:53:15.356Z,0.90
2023-05-03T11:55:43.847Z,0.90
2023-05-03T11:58:26.797Z,0.90
2023-05-03T12:00:55.293Z,1.20
2023-05-03T12:03:27.636Z,1.30
2023-05-03T12:05:57.505Z,1.40
2023-05-03T12:08:35.629Z,2.20
2023-05-03T12:11:07.477Z,1.10
2023-05-03T12:13:39.853Z,0.90
2023-05-03T12:18:57.477Z,1.00
2023-05-03T12:23:56.963Z,1.20
2023-05-03T12:26:25.388Z,1.00
2023-05-03T12:28:55.956Z,1.20
2023-05-03T12:31:23.696Z,0.90
2023-05-03T12:34:12.893Z,1.30
2023-05-03T12:36:38.492Z,1.10
2023-05-03T12:39:10.139Z,1.30
2023-05-03T12:46:38.936Z,0.80
2023-05-03T12:49:07.930Z,1.40
2023-05-03T12:51:35.636Z,1.80
2023-05-03T12:54:03.658Z,1.30
2023-05-03T12:56:32.563Z,1.50
2023-05-03T12:59:26.838Z,1.50
2023-05-03T13:03:08.072Z,1.20
2023-05-03T13:04:56.768Z,1.40
2023-05-03T13:07:28.212Z,1.30
2023-05-03T13:12:27.360Z,1.50
2023-05-03T13:14:56.645Z,1.60
2023-05-03T13:17:23.625Z,1.20
2023-05-03T13:19:51.490Z,1.30
2023-05-03T13:22:18.547Z,1.50
2023-05-03T13:24:47.030Z,1.30
2023-05-03T13:27:14.509Z,1.50
2023-05-03T13:29:41.408Z,1.40
2023-05-03T13:32:08.556Z,1.30
2023-05-03T13:34:35.625Z,2.90
2023-05-03T13:37:04.317Z,1.80
2023-05-03T13:39:32.065Z,1.80
2023-05-03T13:41:59.073Z,3.40
2023-05-03T13:44:26.339Z,3.40
2023-05-03T13:46:53.512Z,2.00
2023-05-03T13:49:20.705Z,1.70
2023-05-03T13:51:48.188Z,1.50
2023-05-03T13:54:15.099Z,1.60
2023-05-03T13:56:43.108Z,1.80
2023-05-03T13:59:13.931Z,1.70
2023-05-03T14:01:41.261Z,2.00
2023-05-03T14:04:08.209Z,1.80
2023-05-03T14:06:34.981Z,1.80
2023-05-03T14:09:02.834Z,1.80
2023-05-03T14:11:30.848Z,1.50
2023-05-03T14:13:58.881Z,2.00
2023-05-03T14:18:56.981Z,1.60
2023-05-03T14:21:23.849Z,1.60
2023-05-03T14:23:51.155Z,1.40
2023-05-03T14:26:19.556Z,1.90
2023-05-03T14:28:46.587Z,1.50
2023-05-03T14:31:13.613Z,2.00
2023-05-03T14:33:40.293Z,1.30
2023-05-03T14:36:10.837Z,1.60
2023-05-03T14:38:37.604Z,1.30
2023-05-03T14:41:04.485Z,1.30
2023-05-03T14:43:31.558Z,1.40
2023-05-03T14:45:58.304Z,1.00
2023-05-03T14:48:24.896Z,1.40
2023-05-03T14:50:52.482Z,1.50
2023-05-03T14:53:19.328Z,2.10
2023-05-03T14:55:46.763Z,1.30
2023-05-03T14:58:13.635Z,1.30
2023-05-03T15:00:41.493Z,1.60
2023-05-03T15:03:13.119Z,1.20
2023-05-03T15:05:46.887Z,1.20
2023-05-03T15:08:15.469Z,1.20
2023-05-03T15:10:44.520Z,1.00
2023-05-03T15:13:12.612Z,1.60
2023-05-03T15:15:40.767Z,1.50
2023-05-03T15:18:11.435Z,1.60
2023-05-03T15:20:39.140Z,2.00
2023-05-03T15:23:06.318Z,1.60
2023-05-03T15:25:33.098Z,1.40
2023-05-03T15:28:03.716Z,1.40
2023-05-03T15:30:32.187Z,1.50
2023-05-03T15:32:59.247Z,1.10
2023-05-03T15:35:26.021Z,1.70
2023-05-03T15:37:52.750Z,1.30
2023-05-03T15:40:23.736Z,1.20
2023-05-03T15:42:52.003Z,1.50
2023-05-03T15:45:18.991Z,1.50
2023-05-03T15:47:46.364Z,1.70
2023-05-03T15:50:13.409Z,1.60
2023-05-03T15:52:40.543Z,2.70
2023-05-03T15:55:09.477Z,1.60
2023-05-03T15:57:36.184Z,1.60
2023-05-03T16:00:13.554Z,1.40
2023-05-03T16:02:40.669Z,2.60
2023-05-03T16:05:07.813Z,3.20
2023-05-03T16:07:34.561Z,2.70
2023-05-03T16:10:01.580Z,2.00
2023-05-03T16:12:28.500Z,1.90
2023-05-03T16:14:55.678Z,2.00
2023-05-03T16:17:22.450Z,1.60
2023-05-03T16:19:49.057Z,2.00
2023-05-03T16:22:16.932Z,1.90
2023-05-03T16:24:43.556Z,1.90
2023-05-03T16:27:10.296Z,2.40
2023-05-03T16:29:37.741Z,1.90
2023-05-03T16:32:06.435Z,1.90
2023-05-03T16:34:33.048Z,1.60
2023-05-03T16:37:00.902Z,2.00
2023-05-03T16:39:27.532Z,2.00
2023-05-03T16:41:54.334Z,1.90
2023-05-03T16:44:21.331Z,1.80
2023-05-03T16:46:48.890Z,1.50
2023-05-03T16:49:16.129Z,1.80
2023-05-03T16:51:43.263Z,1.40
2023-05-03T16:54:10.045Z,1.40
2023-05-03T16:56:37.486Z,2.10
2023-05-03T16:59:04.179Z,2.90
2023-05-03T17:01:31.009Z,4.00
2023-05-03T17:03:57.754Z,4.80
2023-05-03T17:06:24.376Z,3.00
2023-05-03T17:08:50.966Z,2.50
2023-05-03T17:11:17.923Z,2.70
2023-05-03T17:13:44.609Z,2.40
2023-05-03T17:16:15.295Z,2.40
2023-05-03T17:18:42.209Z,2.30
2023-05-03T17:21:10.092Z,2.40
2023-05-03T17:23:38.765Z,3.80
2023-05-03T17:26:08.670Z,10.20
2023-05-03T17:31:03.416Z,8.60
2023-05-03T17:33:30.103Z,4.40
2023-05-03T17:35:57.080Z,3.70
2023-05-03T17:38:23.939Z,3.70
2023-05-03T17:40:50.845Z,6.40
2023-05-03T17:43:17.712Z,5.50
2023-05-03T17:45:47.501Z,6.60
2023-05-03T17:48:14.729Z,8.80
2023-05-03T17:50:43.350Z,8.10
2023-05-03T17:53:10.343Z,8.10
2023-05-03T17:55:40.971Z,8.60
2023-05-03T17:58:09.426Z,9.30
2023-05-03T18:00:36.217Z,8.30
2023-05-03T18:03:03.152Z,8.00
2023-05-03T18:05:36.811Z,7.90
2023-05-03T18:08:03.789Z,8.20
2023-05-03T18:10:31.204Z,8.90
2023-05-03T18:12:58.259Z,24.70
2023-05-03T18:15:25.279Z,14.60
2023-05-03T18:17:52.954Z,12.10
2023-05-03T18:20:19.891Z,10.60
2023-05-03T18:22:46.524Z,9.30
2023-05-03T18:25:13.688Z,7.40
2023-05-03T18:27:40.381Z,9.30
2023-05-03T18:30:07.804Z,8.20
2023-05-03T18:32:34.853Z,6.80
2023-05-03T18:35:02.526Z,7.80
2023-05-03T18:37:29.556Z,8.80
2023-05-03T18:39:56.345Z,11.10
2023-05-03T18:42:23.080Z,10.80
2023-05-03T18:44:49.760Z,8.10
2023-05-03T18:47:20.617Z,9.60
2023-05-03T18:49:52.540Z,14.80
2023-05-03T18:52:23.532Z,10.70
2023-05-03T18:54:50.849Z,9.10
2023-05-03T18:57:17.693Z,9.10
2023-05-03T18:59:56.588Z,14.30
2023-05-03T19:02:25.324Z,12.40
2023-05-03T19:04:52.725Z,11.70
2023-05-03T19:07:19.719Z,13.40
2023-05-03T19:09:46.461Z,12.70
2023-05-03T19:12:13.741Z,12.90
2023-05-03T19:14:43.341Z,12.60
2023-05-03T19:17:10.167Z,12.70
2023-05-03T19:19:36.924Z,15.10
2023-05-03T19:22:03.677Z,16.00
2023-05-03T19:24:30.501Z,15.70
2023-05-03T19:26:57.402Z,17.90
2023-05-03T19:29:23.998Z,19.60
2023-05-03T19:31:50.585Z,19.80
2023-05-03T19:34:17.812Z,22.50
2023-05-03T19:36:44.534Z,22.50
2023-05-03T19:39:14.181Z,19.20
2023-05-03T19:41:41.560Z,21.80
2023-05-03T19:44:09.259Z,20.60
2023-05-03T19:46:36.493Z,20.60
2023-05-03T19:49:03.237Z,20.60
2023-05-03T19:51:30.062Z,23.10
2023-05-03T19:53:57.689Z,22.00
2023-05-03T19:56:25.154Z,25.80
2023-05-03T19:58:51.854Z,23.70
2023-05-03T20:01:18.754Z,24.40
2023-05-03T20:03:46.801Z,25.70
2023-05-03T20:06:14.320Z,26.40
2023-05-03T20:08:41.273Z,27.20
2023-05-03T20:11:08.050Z,27.60
2023-05-03T20:13:34.939Z,27.00
2023-05-03T20:16:05.353Z,30.70
2023-05-03T20:18:32.050Z,29.80
2023-05-03T20:20:58.826Z,34.00
2023-05-03T20:23:26.915Z,31.30
2023-05-03T20:25:53.766Z,34.30
2023-05-03T20:28:20.585Z,33.50
2023-05-03T20:30:47.667Z,34.80
2023-05-03T20:33:14.796Z,35.10
2023-05-03T20:35:41.620Z,34.00
2023-05-03T20:38:08.337Z,36.70
2023-05-03T20:40:36.263Z,40.00
2023-05-03T20:43:06.194Z,74.30
2023-05-03T20:45:32.982Z,66.50
2023-05-03T20:47:59.718Z,60.80
2023-05-03T20:50:26.483Z,55.80
2023-05-03T20:52:55.008Z,49.70
2023-05-03T20:55:21.783Z,46.30
2023-05-03T20:57:48.684Z,43.50
2023-05-03T21:00:16.005Z,45.40
2023-05-03T21:02:43.443Z,46.30
2023-05-03T21:05:11.465Z,47.00
2023-05-03T21:07:38.754Z,43.70
2023-05-03T21:10:07.673Z,44.20
2023-05-03T21:12:34.921Z,42.60
2023-05-03T21:15:03.127Z,42.30
2023-05-03T21:17:29.837Z,39.90
2023-05-03T21:19:57.172Z,40.00
2023-05-03T21:22:24.077Z,42.50
2023-05-03T21:24:51.138Z,41.80
2023-05-03T21:27:19.374Z,42.60
2023-05-03T21:29:46.508Z,45.40
2023-05-03T21:32:13.469Z,42.80
2023-05-03T21:34:40.160Z,46.90
2023-05-03T21:37:07.450Z,51.70
2023-05-03T21:39:34.189Z,46.00
2023-05-03T21:42:00.977Z,48.70
2023-05-03T21:44:27.823Z,49.40
2023-05-03T21:46:54.535Z,50.10
2023-05-03T21:49:21.559Z,45.60
2023-05-03T21:51:48.320Z,44.50
2023-05-03T21:54:17.159Z,44.90
2023-05-03T21:56:43.882Z,43.10
2023-05-03T21:59:10.505Z,43.30
2023-05-03T22:01:38.240Z,40.70
2023-05-03T22:04:06.206Z,39.90
2023-05-03T22:06:33.248Z,36.30
2023-05-03T22:08:59.827Z,39.30
2023-05-03T22:11:26.419Z,37.20
2023-05-03T22:14:06.813Z,37.80
2023-05-03T22:16:38.944Z,39.30
2023-05-03T22:19:05.704Z,36.50
2023-05-03T22:21:32.608Z,38.40
2023-05-03T22:23:59.263Z,42.10
2023-05-03T22:26:26.075Z,42.30
2023-05-03T22:28:52.637Z,38.20
2023-05-03T22:31:19.595Z,39.60
2023-05-03T22:33:47.229Z,41.20
2023-05-03T22:36:14.658Z,36.70
2023-05-03T22:38:43.084Z,37.00
2023-05-03T22:41:10.315Z,37.30
2023-05-03T22:43:37.062Z,37.40
2023-05-03T22:46:04.149Z,37.50
2023-05-03T22:48:32.558Z,39.20
2023-05-03T22:51:00.180Z,37.10
2023-05-03T22:53:26.841Z,39.70
2023-05-03T22:56:01.542Z,40.80
2023-05-03T22:58:28.656Z,44.00
2023-05-03T23:00:56.546Z,44.80
2023-05-03T23:03:23.426Z,41.50
2023-05-03T23:05:53.301Z,43.60
2023-05-03T23:10:47.283Z,42.80
2023-05-03T23:13:13.908Z,44.60
2023-05-03T23:15:40.525Z,43.20
2023-05-03T23:18:09.649Z,40.00
2023-05-03T23:20:36.655Z,41.30
2023-05-03T23:23:03.286Z,40.00
2023-05-03T23:25:29.955Z,39.40
2023-05-03T23:27:56.702Z,39.20
2023-05-03T23:30:24.005Z,40.30
2023-05-03T23:32:51.235Z,38.70
2023-05-03T23:35:18.533Z,37.20
2023-05-03T23:37:45.096Z,39.00
2023-05-03T23:40:13.095Z,37.80
2023-05-03T23:42:41.479Z,37.30
2023-05-03T23:45:09.801Z,36.40
2023-05-03T23:47:37.040Z,36.20
2023-05-03T23:50:05.115Z,37.20
2023-05-03T23:52:31.988Z,36.00
2023-05-03T23:54:58.565Z,35.30
2023-05-03T23:57:25.233Z,35.40
2023-05-03T23:59:51.833Z,34.70
